sensor_id;sensor_type;location;lat;lon;timestamp;temperature;humidity
12477;DHT22;6303;51.504;6.300;2023-06-22T00:00:14;29.70;55.30
12477;DHT22;6303;51.504;6.300;2023-06-22T00:02:42;29.80;55.20
12477;DHT22;6303;51.504;6.300;2023-06-22T00:05:09;29.80;55.20
12477;DHT22;6303;51.504;6.300;2023-06-22T00:07:36;29.90;55.10
12477;DHT22;6303;51.504;6.300;2023-06-22T00:10:06;29.90;55.10
12477;DHT22;6303;51.504;6.300;2023-06-22T00:12:33;30.00;55.00
12477;DHT22;6303;51.504;6.300;2023-06-22T00:15:00;30.10;55.00
12477;DHT22;6303;51.504;6.300;2023-06-22T00:17:27;30.00;54.90
12477;DHT22;6303;51.504;6.300;2023-06-22T00:19:54;30.10;54.80
12477;DHT22;6303;51.504;6.300;2023-06-22T00:22:23;30.10;54.70
12477;DHT22;6303;51.504;6.300;2023-06-22T00:24:54;30.10;54.70
12477;DHT22;6303;51.504;6.300;2023-06-22T00:27:22;30.10;54.60
12477;DHT22;6303;51.504;6.300;2023-06-22T00:29:49;30.10;54.60
12477;DHT22;6303;51.504;6.300;2023-06-22T00:32:16;30.10;54.60
12477;DHT22;6303;51.504;6.300;2023-06-22T00:34:46;30.00;54.70
12477;DHT22;6303;51.504;6.300;2023-06-22T00:37:13;30.00;54.90
12477;DHT22;6303;51.504;6.300;2023-06-22T00:39:40;30.00;54.90
12477;DHT22;6303;51.504;6.300;2023-06-22T00:42:07;30.10;55.00
12477;DHT22;6303;51.504;6.300;2023-06-22T00:44:36;30.10;54.90
12477;DHT22;6303;51.504;6.300;2023-06-22T00:47:03;30.20;54.80
12477;DHT22;6303;51.504;6.300;2023-06-22T00:49:32;30.20;54.80
12477;DHT22;6303;51.504;6.300;2023-06-22T00:51:59;30.30;54.70
12477;DHT22;6303;51.504;6.300;2023-06-22T00:54:27;30.30;54.70
12477;DHT22;6303;51.504;6.300;2023-06-22T00:56:54;30.30;54.70
12477;DHT22;6303;51.504;6.300;2023-06-22T00:59:23;30.30;54.60
12477;DHT22;6303;51.504;6.300;2023-06-22T01:01:53;30.40;54.70
12477;DHT22;6303;51.504;6.300;2023-06-22T01:04:21;30.40;54.60
12477;DHT22;6303;51.504;6.300;2023-06-22T01:06:54;30.40;54.50
12477;DHT22;6303;51.504;6.300;2023-06-22T01:09:32;30.40;54.40
12477;DHT22;6303;51.504;6.300;2023-06-22T01:12:05;30.40;54.40
12477;DHT22;6303;51.504;6.300;2023-06-22T01:14:37;30.50;54.10
12477;DHT22;6303;51.504;6.300;2023-06-22T01:17:08;30.40;54.40
12477;DHT22;6303;51.504;6.300;2023-06-22T01:19:39;30.30;54.50
12477;DHT22;6303;51.504;6.300;2023-06-22T01:22:10;30.30;54.70
12477;DHT22;6303;51.504;6.300;2023-06-22T01:24:48;30.30;54.60
12477;DHT22;6303;51.504;6.300;2023-06-22T01:27:27;30.30;54.60
12477;DHT22;6303;51.504;6.300;2023-06-22T01:29:57;30.40;54.60
12477;DHT22;6303;51.504;6.300;2023-06-22T01:32:28;30.40;54.50
12477;DHT22;6303;51.504;6.300;2023-06-22T01:34:58;30.40;54.30
12477;DHT22;6303;51.504;6.300;2023-06-22T01:37:27;30.30;54.30
12477;DHT22;6303;51.504;6.300;2023-06-22T01:39:55;30.20;54.60
12477;DHT22;6303;51.504;6.300;2023-06-22T01:42:24;30.00;54.90
12477;DHT22;6303;51.504;6.300;2023-06-22T01:44:52;29.90;55.10
12477;DHT22;6303;51.504;6.300;2023-06-22T01:47:22;29.90;55.30
12477;DHT22;6303;51.504;6.300;2023-06-22T01:49:49;29.90;55.40
12477;DHT22;6303;51.504;6.300;2023-06-22T01:52:20;29.90;55.30
12477;DHT22;6303;51.504;6.300;2023-06-22T01:54:47;30.00;55.30
12477;DHT22;6303;51.504;6.300;2023-06-22T01:57:15;30.00;55.10
12477;DHT22;6303;51.504;6.300;2023-06-22T01:59:48;30.00;55.10
12477;DHT22;6303;51.504;6.300;2023-06-22T02:02:20;29.90;55.70
12477;DHT22;6303;51.504;6.300;2023-06-22T02:04:56;29.90;55.30
12477;DHT22;6303;51.504;6.300;2023-06-22T02:07:28;29.70;55.40
12477;DHT22;6303;51.504;6.300;2023-06-22T02:10:02;29.60;55.70
12477;DHT22;6303;51.504;6.300;2023-06-22T02:12:32;29.40;56.10
12477;DHT22;6303;51.504;6.300;2023-06-22T02:15:00;29.30;56.30
12477;DHT22;6303;51.504;6.300;2023-06-22T02:17:29;29.60;56.60
12477;DHT22;6303;51.504;6.300;2023-06-22T02:20:01;29.20;56.50
12477;DHT22;6303;51.504;6.300;2023-06-22T02:22:35;29.20;56.50
12477;DHT22;6303;51.504;6.300;2023-06-22T02:25:02;29.20;56.60
12477;DHT22;6303;51.504;6.300;2023-06-22T02:27:29;29.20;56.60
12477;DHT22;6303;51.504;6.300;2023-06-22T02:29:56;29.30;56.70
12477;DHT22;6303;51.504;6.300;2023-06-22T02:32:24;29.40;56.50
12477;DHT22;6303;51.504;6.300;2023-06-22T02:34:52;29.50;56.30
12477;DHT22;6303;51.504;6.300;2023-06-22T02:37:19;29.60;56.10
12477;DHT22;6303;51.504;6.300;2023-06-22T02:39:46;29.70;56.00
12477;DHT22;6303;51.504;6.300;2023-06-22T02:42:13;29.80;55.90
12477;DHT22;6303;51.504;6.300;2023-06-22T02:44:42;29.80;55.70
12477;DHT22;6303;51.504;6.300;2023-06-22T02:47:09;29.90;55.60
12477;DHT22;6303;51.504;6.300;2023-06-22T02:49:37;29.90;55.40
12477;DHT22;6303;51.504;6.300;2023-06-22T02:52:05;29.90;55.50
12477;DHT22;6303;51.504;6.300;2023-06-22T02:54:32;29.80;55.50
12477;DHT22;6303;51.504;6.300;2023-06-22T02:57:00;29.70;55.50
12477;DHT22;6303;51.504;6.300;2023-06-22T02:59:29;29.60;55.70
12477;DHT22;6303;51.504;6.300;2023-06-22T03:02:02;29.50;56.00
12477;DHT22;6303;51.504;6.300;2023-06-22T03:04:31;29.40;56.20
12477;DHT22;6303;51.504;6.300;2023-06-22T03:06:59;29.30;56.30
12477;DHT22;6303;51.504;6.300;2023-06-22T03:09:29;29.20;56.50
12477;DHT22;6303;51.504;6.300;2023-06-22T03:11:57;29.20;56.50
12477;DHT22;6303;51.504;6.300;2023-06-22T03:14:29;29.20;56.50
12477;DHT22;6303;51.504;6.300;2023-06-22T03:16:57;29.30;56.40
12477;DHT22;6303;51.504;6.300;2023-06-22T03:19:28;29.40;56.20
12477;DHT22;6303;51.504;6.300;2023-06-22T03:21:57;29.60;56.10
12477;DHT22;6303;51.504;6.300;2023-06-22T03:24:25;29.70;55.90
12477;DHT22;6303;51.504;6.300;2023-06-22T03:26:56;29.70;55.70
12477;DHT22;6303;51.504;6.300;2023-06-22T03:29:23;29.80;55.60
12477;DHT22;6303;51.504;6.300;2023-06-22T03:31:51;29.90;55.50
12477;DHT22;6303;51.504;6.300;2023-06-22T03:34:19;29.90;55.80
12477;DHT22;6303;51.504;6.300;2023-06-22T03:36:46;30.00;55.00
12477;DHT22;6303;51.504;6.300;2023-06-22T03:39:13;30.00;54.90
12477;DHT22;6303;51.504;6.300;2023-06-22T03:41:41;30.10;54.70
12477;DHT22;6303;51.504;6.300;2023-06-22T03:44:09;30.10;54.80
12477;DHT22;6303;51.504;6.300;2023-06-22T03:46:38;30.10;54.70
12477;DHT22;6303;51.504;6.300;2023-06-22T03:49:05;30.10;54.70
12477;DHT22;6303;51.504;6.300;2023-06-22T03:51:32;30.10;54.70
12477;DHT22;6303;51.504;6.300;2023-06-22T03:54:00;30.10;54.60
12477;DHT22;6303;51.504;6.300;2023-06-22T03:56:26;30.10;54.60
12477;DHT22;6303;51.504;6.300;2023-06-22T03:58:53;30.20;54.60
12477;DHT22;6303;51.504;6.300;2023-06-22T04:01:22;30.20;55.10
12477;DHT22;6303;51.504;6.300;2023-06-22T04:03:49;30.30;54.40
12477;DHT22;6303;51.504;6.300;2023-06-22T04:06:16;30.50;54.50
12477;DHT22;6303;51.504;6.300;2023-06-22T04:08:45;30.30;54.20
12477;DHT22;6303;51.504;6.300;2023-06-22T04:11:13;30.30;54.10
12477;DHT22;6303;51.504;6.300;2023-06-22T04:13:40;30.30;54.00
12477;DHT22;6303;51.504;6.300;2023-06-22T04:16:07;30.30;54.10
12477;DHT22;6303;51.504;6.300;2023-06-22T04:18:36;30.30;54.20
12477;DHT22;6303;51.504;6.300;2023-06-22T04:21:05;30.30;54.20
12477;DHT22;6303;51.504;6.300;2023-06-22T04:23:32;30.30;54.20
12477;DHT22;6303;51.504;6.300;2023-06-22T04:25:59;30.30;54.10
12477;DHT22;6303;51.504;6.300;2023-06-22T04:28:26;30.30;54.10
12477;DHT22;6303;51.504;6.300;2023-06-22T04:30:53;30.30;54.10
12477;DHT22;6303;51.504;6.300;2023-06-22T04:33:23;30.30;54.20
12477;DHT22;6303;51.504;6.300;2023-06-22T04:35:52;30.20;54.20
12477;DHT22;6303;51.504;6.300;2023-06-22T04:38:19;30.20;54.20
12477;DHT22;6303;51.504;6.300;2023-06-22T04:40:47;30.20;54.20
12477;DHT22;6303;51.504;6.300;2023-06-22T04:43:14;30.30;54.20
12477;DHT22;6303;51.504;6.300;2023-06-22T04:45:41;30.30;54.10
12477;DHT22;6303;51.504;6.300;2023-06-22T04:48:08;30.30;54.10
12477;DHT22;6303;51.504;6.300;2023-06-22T04:50:36;30.30;54.00
12477;DHT22;6303;51.504;6.300;2023-06-22T04:53:05;30.30;54.00
12477;DHT22;6303;51.504;6.300;2023-06-22T04:55:33;30.30;54.00
12477;DHT22;6303;51.504;6.300;2023-06-22T04:58:00;30.30;54.00
12477;DHT22;6303;51.504;6.300;2023-06-22T05:00:30;30.40;54.10
12477;DHT22;6303;51.504;6.300;2023-06-22T05:02:57;30.40;54.10
12477;DHT22;6303;51.504;6.300;2023-06-22T05:05:24;30.40;54.10
12477;DHT22;6303;51.504;6.300;2023-06-22T05:07:52;30.40;54.20
12477;DHT22;6303;51.504;6.300;2023-06-22T05:10:22;30.40;54.10
12477;DHT22;6303;51.504;6.300;2023-06-22T05:12:48;30.40;54.30
12477;DHT22;6303;51.504;6.300;2023-06-22T05:15:16;30.30;54.40
12477;DHT22;6303;51.504;6.300;2023-06-22T05:17:45;30.30;54.30
12477;DHT22;6303;51.504;6.300;2023-06-22T05:20:12;30.30;54.20
12477;DHT22;6303;51.504;6.300;2023-06-22T05:22:43;30.40;54.30
12477;DHT22;6303;51.504;6.300;2023-06-22T05:25:11;30.40;54.30
12477;DHT22;6303;51.504;6.300;2023-06-22T05:27:40;30.40;54.40
12477;DHT22;6303;51.504;6.300;2023-06-22T05:30:08;30.40;54.60
12477;DHT22;6303;51.504;6.300;2023-06-22T05:32:36;30.40;54.80
12477;DHT22;6303;51.504;6.300;2023-06-22T05:35:03;30.40;54.70
12477;DHT22;6303;51.504;6.300;2023-06-22T05:37:30;30.50;54.70
12477;DHT22;6303;51.504;6.300;2023-06-22T05:39:57;30.50;54.60
12477;DHT22;6303;51.504;6.300;2023-06-22T05:42:24;30.50;54.60
12477;DHT22;6303;51.504;6.300;2023-06-22T05:44:53;30.50;54.60
12477;DHT22;6303;51.504;6.300;2023-06-22T05:47:20;30.40;54.70
12477;DHT22;6303;51.504;6.300;2023-06-22T05:49:48;30.40;54.90
12477;DHT22;6303;51.504;6.300;2023-06-22T05:52:15;30.40;55.60
12477;DHT22;6303;51.504;6.300;2023-06-22T05:54:42;30.40;54.90
12477;DHT22;6303;51.504;6.300;2023-06-22T05:57:09;30.40;54.90
12477;DHT22;6303;51.504;6.300;2023-06-22T05:59:36;30.40;54.90
12477;DHT22;6303;51.504;6.300;2023-06-22T06:02:05;30.40;55.00
12477;DHT22;6303;51.504;6.300;2023-06-22T06:04:32;30.40;55.00
12477;DHT22;6303;51.504;6.300;2023-06-22T06:07:00;30.40;55.00
12477;DHT22;6303;51.504;6.300;2023-06-22T06:09:27;30.40;54.90
12477;DHT22;6303;51.504;6.300;2023-06-22T06:11:54;30.40;54.80
12477;DHT22;6303;51.504;6.300;2023-06-22T06:14:21;30.50;55.00
12477;DHT22;6303;51.504;6.300;2023-06-22T06:16:48;30.50;55.00
12477;DHT22;6303;51.504;6.300;2023-06-22T06:19:17;29.80;54.60
12477;DHT22;6303;51.504;6.300;2023-06-22T06:21:44;30.40;55.20
12477;DHT22;6303;51.504;6.300;2023-06-22T06:24:12;30.40;55.30
12477;DHT22;6303;51.504;6.300;2023-06-22T06:26:39;30.40;55.30
12477;DHT22;6303;51.504;6.300;2023-06-22T06:29:06;30.40;55.00
12477;DHT22;6303;51.504;6.300;2023-06-22T06:31:33;30.50;54.90
12477;DHT22;6303;51.504;6.300;2023-06-22T06:34:00;30.50;54.80
12477;DHT22;6303;51.504;6.300;2023-06-22T06:36:29;30.40;54.90
12477;DHT22;6303;51.504;6.300;2023-06-22T06:38:56;30.40;54.90
12477;DHT22;6303;51.504;6.300;2023-06-22T06:41:23;30.40;54.80
12477;DHT22;6303;51.504;6.300;2023-06-22T06:43:50;30.50;54.80
12477;DHT22;6303;51.504;6.300;2023-06-22T06:46:17;30.50;54.70
12477;DHT22;6303;51.504;6.300;2023-06-22T06:48:45;30.50;54.60
12477;DHT22;6303;51.504;6.300;2023-06-22T06:51:12;30.50;54.40
12477;DHT22;6303;51.504;6.300;2023-06-22T06:53:40;30.50;54.50
12477;DHT22;6303;51.504;6.300;2023-06-22T06:56:07;30.50;54.50
12477;DHT22;6303;51.504;6.300;2023-06-22T06:58:36;30.50;54.50
12477;DHT22;6303;51.504;6.300;2023-06-22T07:01:03;30.50;54.50
12477;DHT22;6303;51.504;6.300;2023-06-22T07:03:30;30.50;54.50
12477;DHT22;6303;51.504;6.300;2023-06-22T07:05:58;30.50;54.50
12477;DHT22;6303;51.504;6.300;2023-06-22T07:08:26;30.50;54.50
12477;DHT22;6303;51.504;6.300;2023-06-22T07:10:54;30.50;54.50
12477;DHT22;6303;51.504;6.300;2023-06-22T07:13:21;30.50;54.50
12477;DHT22;6303;51.504;6.300;2023-06-22T07:15:48;30.50;54.70
12477;DHT22;6303;51.504;6.300;2023-06-22T07:18:15;30.40;54.90
12477;DHT22;6303;51.504;6.300;2023-06-22T07:20:42;30.50;54.80
12477;DHT22;6303;51.504;6.300;2023-06-22T07:23:09;30.50;54.80
12477;DHT22;6303;51.504;6.300;2023-06-22T07:25:36;30.50;54.60
12477;DHT22;6303;51.504;6.300;2023-06-22T07:28:07;30.50;54.60
12477;DHT22;6303;51.504;6.300;2023-06-22T07:30:34;30.50;54.60
12477;DHT22;6303;51.504;6.300;2023-06-22T07:33:02;30.50;54.50
12477;DHT22;6303;51.504;6.300;2023-06-22T07:35:30;30.50;54.50
12477;DHT22;6303;51.504;6.300;2023-06-22T07:37:57;30.50;54.50
12477;DHT22;6303;51.504;6.300;2023-06-22T07:40:24;30.50;54.50
12477;DHT22;6303;51.504;6.300;2023-06-22T07:42:51;30.50;54.50
12477;DHT22;6303;51.504;6.300;2023-06-22T07:45:20;30.50;54.60
12477;DHT22;6303;51.504;6.300;2023-06-22T07:47:47;30.50;54.60
12477;DHT22;6303;51.504;6.300;2023-06-22T07:50:14;30.50;54.60
12477;DHT22;6303;51.504;6.300;2023-06-22T07:52:41;30.50;54.60
12477;DHT22;6303;51.504;6.300;2023-06-22T07:55:08;30.50;54.60
12477;DHT22;6303;51.504;6.300;2023-06-22T07:57:35;30.50;54.50
12477;DHT22;6303;51.504;6.300;2023-06-22T08:00:04;30.50;54.60
12477;DHT22;6303;51.504;6.300;2023-06-22T08:02:39;30.50;54.50
12477;DHT22;6303;51.504;6.300;2023-06-22T08:05:07;30.50;54.50
12477;DHT22;6303;51.504;6.300;2023-06-22T08:07:35;30.50;54.60
12477;DHT22;6303;51.504;6.300;2023-06-22T08:10:02;30.50;54.50
12477;DHT22;6303;51.504;6.300;2023-06-22T08:12:29;30.50;54.30
12477;DHT22;6303;51.504;6.300;2023-06-22T08:14:57;30.50;54.40
12477;DHT22;6303;51.504;6.300;2023-06-22T08:17:24;30.50;54.50
12477;DHT22;6303;51.504;6.300;2023-06-22T08:19:52;30.50;54.60
12477;DHT22;6303;51.504;6.300;2023-06-22T08:22:19;30.50;54.50
12477;DHT22;6303;51.504;6.300;2023-06-22T08:24:46;30.50;54.50
12477;DHT22;6303;51.504;6.300;2023-06-22T08:27:13;30.50;54.80
12477;DHT22;6303;51.504;6.300;2023-06-22T08:29:42;30.40;54.80
12477;DHT22;6303;51.504;6.300;2023-06-22T08:32:11;30.50;54.80
12477;DHT22;6303;51.504;6.300;2023-06-22T08:34:38;30.50;54.80
12477;DHT22;6303;51.504;6.300;2023-06-22T08:37:09;30.50;54.80
12477;DHT22;6303;51.504;6.300;2023-06-22T08:39:36;30.40;54.90
12477;DHT22;6303;51.504;6.300;2023-06-22T08:42:05;30.40;54.90
12477;DHT22;6303;51.504;6.300;2023-06-22T08:44:32;30.50;55.00
12477;DHT22;6303;51.504;6.300;2023-06-22T08:46:59;30.50;54.90
12477;DHT22;6303;51.504;6.300;2023-06-22T08:49:27;30.50;55.00
12477;DHT22;6303;51.504;6.300;2023-06-22T08:51:54;30.50;54.80
12477;DHT22;6303;51.504;6.300;2023-06-22T08:54:24;30.50;54.80
12477;DHT22;6303;51.504;6.300;2023-06-22T08:56:50;30.50;54.80
12477;DHT22;6303;51.504;6.300;2023-06-22T08:59:17;30.50;54.80
12477;DHT22;6303;51.504;6.300;2023-06-22T09:01:44;30.50;54.80
12477;DHT22;6303;51.504;6.300;2023-06-22T09:04:14;30.50;54.80
12477;DHT22;6303;51.504;6.300;2023-06-22T09:06:41;30.50;54.80
12477;DHT22;6303;51.504;6.300;2023-06-22T09:09:10;30.50;54.70
12477;DHT22;6303;51.504;6.300;2023-06-22T09:11:39;30.50;54.70
12477;DHT22;6303;51.504;6.300;2023-06-22T09:14:06;30.50;54.80
12477;DHT22;6303;51.504;6.300;2023-06-22T09:16:34;30.50;54.80
12477;DHT22;6303;51.504;6.300;2023-06-22T09:19:01;30.50;54.80
12477;DHT22;6303;51.504;6.300;2023-06-22T09:21:28;30.50;55.40
12477;DHT22;6303;51.504;6.300;2023-06-22T09:23:55;30.50;54.80
12477;DHT22;6303;51.504;6.300;2023-06-22T09:26:22;30.50;54.80
12477;DHT22;6303;51.504;6.300;2023-06-22T09:28:51;30.50;54.70
12477;DHT22;6303;51.504;6.300;2023-06-22T09:31:18;30.50;54.70
12477;DHT22;6303;51.504;6.300;2023-06-22T09:33:51;30.50;55.10
12477;DHT22;6303;51.504;6.300;2023-06-22T09:36:19;30.40;55.30
12477;DHT22;6303;51.504;6.300;2023-06-22T09:38:46;30.20;55.30
12477;DHT22;6303;51.504;6.300;2023-06-22T09:41:13;30.40;55.20
12477;DHT22;6303;51.504;6.300;2023-06-22T09:43:40;30.40;55.00
12477;DHT22;6303;51.504;6.300;2023-06-22T09:46:08;30.50;55.00
12477;DHT22;6303;51.504;6.300;2023-06-22T09:48:35;30.50;54.90
12477;DHT22;6303;51.504;6.300;2023-06-22T09:51:02;30.50;55.00
12477;DHT22;6303;51.504;6.300;2023-06-22T09:53:29;30.50;55.00
12477;DHT22;6303;51.504;6.300;2023-06-22T09:55:56;30.50;54.90
12477;DHT22;6303;51.504;6.300;2023-06-22T09:58:23;30.50;55.00
12477;DHT22;6303;51.504;6.300;2023-06-22T10:00:50;30.50;54.80
12477;DHT22;6303;51.504;6.300;2023-06-22T10:03:20;30.50;54.90
12477;DHT22;6303;51.504;6.300;2023-06-22T10:05:47;30.50;54.90
12477;DHT22;6303;51.504;6.300;2023-06-22T10:08:14;30.50;54.90
12477;DHT22;6303;51.504;6.300;2023-06-22T10:10:41;30.60;55.00
12477;DHT22;6303;51.504;6.300;2023-06-22T10:13:09;30.60;54.90
12477;DHT22;6303;51.504;6.300;2023-06-22T10:15:37;30.60;55.00
12477;DHT22;6303;51.504;6.300;2023-06-22T10:18:04;30.60;55.00
12477;DHT22;6303;51.504;6.300;2023-06-22T10:20:33;30.60;55.10
12477;DHT22;6303;51.504;6.300;2023-06-22T10:23:00;30.60;55.10
12477;DHT22;6303;51.504;6.300;2023-06-22T10:25:27;30.60;55.20
12477;DHT22;6303;51.504;6.300;2023-06-22T10:27:54;30.60;55.30
12477;DHT22;6303;51.504;6.300;2023-06-22T10:30:21;30.60;55.30
12477;DHT22;6303;51.504;6.300;2023-06-22T10:32:49;30.60;55.20
12477;DHT22;6303;51.504;6.300;2023-06-22T10:35:16;31.30;55.70
12477;DHT22;6303;51.504;6.300;2023-06-22T10:37:45;30.60;55.30
12477;DHT22;6303;51.504;6.300;2023-06-22T10:40:13;30.60;55.30
12477;DHT22;6303;51.504;6.300;2023-06-22T10:42:41;30.60;55.30
12477;DHT22;6303;51.504;6.300;2023-06-22T10:45:09;30.60;55.30
12477;DHT22;6303;51.504;6.300;2023-06-22T10:47:36;30.60;55.90
12477;DHT22;6303;51.504;6.300;2023-06-22T10:50:05;30.60;55.30
12477;DHT22;6303;51.504;6.300;2023-06-22T10:52:32;30.60;55.40
12477;DHT22;6303;51.504;6.300;2023-06-22T10:55:00;30.60;55.70
12477;DHT22;6303;51.504;6.300;2023-06-22T10:57:27;30.50;55.90
12477;DHT22;6303;51.504;6.300;2023-06-22T10:59:54;30.50;55.80
12477;DHT22;6303;51.504;6.300;2023-06-22T11:02:21;30.50;55.90
12477;DHT22;6303;51.504;6.300;2023-06-22T11:04:48;30.50;56.00
12477;DHT22;6303;51.504;6.300;2023-06-22T11:07:16;30.50;56.10
12477;DHT22;6303;51.504;6.300;2023-06-22T11:09:43;30.50;56.40
12477;DHT22;6303;51.504;6.300;2023-06-22T11:12:11;30.50;57.00
12477;DHT22;6303;51.504;6.300;2023-06-22T11:14:39;31.70;57.00
12477;DHT22;6303;51.504;6.300;2023-06-22T11:17:06;30.50;57.10
12477;DHT22;6303;51.504;6.300;2023-06-22T11:19:33;30.40;56.90
12477;DHT22;6303;51.504;6.300;2023-06-22T11:22:00;30.40;57.20
12477;DHT22;6303;51.504;6.300;2023-06-22T11:24:27;30.30;57.80
12477;DHT22;6303;51.504;6.300;2023-06-22T11:26:54;30.20;58.90
12477;DHT22;6303;51.504;6.300;2023-06-22T11:29:22;30.10;58.30
12477;DHT22;6303;51.504;6.300;2023-06-22T11:31:49;30.20;58.10
12477;DHT22;6303;51.504;6.300;2023-06-22T11:34:16;30.30;57.80
12477;DHT22;6303;51.504;6.300;2023-06-22T11:36:44;30.30;57.90
12477;DHT22;6303;51.504;6.300;2023-06-22T11:39:13;30.40;58.10
12477;DHT22;6303;51.504;6.300;2023-06-22T11:41:40;30.40;57.90
12477;DHT22;6303;51.504;6.300;2023-06-22T11:44:08;30.50;57.80
12477;DHT22;6303;51.504;6.300;2023-06-22T11:46:37;30.40;58.30
12477;DHT22;6303;51.504;6.300;2023-06-22T11:49:04;30.40;58.50
12477;DHT22;6303;51.504;6.300;2023-06-22T11:51:31;30.40;58.20
12477;DHT22;6303;51.504;6.300;2023-06-22T11:53:58;30.40;57.90
12477;DHT22;6303;51.504;6.300;2023-06-22T11:56:25;30.50;57.80
12477;DHT22;6303;51.504;6.300;2023-06-22T11:58:53;30.50;57.50
12477;DHT22;6303;51.504;6.300;2023-06-22T12:01:20;30.60;57.30
12477;DHT22;6303;51.504;6.300;2023-06-22T12:03:49;30.60;57.20
12477;DHT22;6303;51.504;6.300;2023-06-22T12:06:17;30.60;56.90
12477;DHT22;6303;51.504;6.300;2023-06-22T12:08:44;30.60;56.80
12477;DHT22;6303;51.504;6.300;2023-06-22T12:11:11;30.60;56.70
12477;DHT22;6303;51.504;6.300;2023-06-22T12:13:38;30.70;56.60
12477;DHT22;6303;51.504;6.300;2023-06-22T12:16:05;30.70;56.60
12477;DHT22;6303;51.504;6.300;2023-06-22T12:18:33;30.70;56.60
12477;DHT22;6303;51.504;6.300;2023-06-22T12:21:01;30.70;56.50
12477;DHT22;6303;51.504;6.300;2023-06-22T12:23:28;30.70;56.50
12477;DHT22;6303;51.504;6.300;2023-06-22T12:25:55;30.70;56.90
12477;DHT22;6303;51.504;6.300;2023-06-22T12:28:22;30.70;56.20
12477;DHT22;6303;51.504;6.300;2023-06-22T12:30:50;30.70;56.10
12477;DHT22;6303;51.504;6.300;2023-06-22T12:33:17;30.70;56.10
12477;DHT22;6303;51.504;6.300;2023-06-22T12:35:44;30.70;56.00
12477;DHT22;6303;51.504;6.300;2023-06-22T12:38:13;30.70;55.90
12477;DHT22;6303;51.504;6.300;2023-06-22T12:40:40;30.70;56.00
12477;DHT22;6303;51.504;6.300;2023-06-22T12:43:07;30.70;55.90
12477;DHT22;6303;51.504;6.300;2023-06-22T12:45:34;30.70;55.80
12477;DHT22;6303;51.504;6.300;2023-06-22T12:48:01;30.80;55.90
12477;DHT22;6303;51.504;6.300;2023-06-22T12:50:28;30.70;55.80
12477;DHT22;6303;51.504;6.300;2023-06-22T12:52:55;30.80;55.80
12477;DHT22;6303;51.504;6.300;2023-06-22T12:55:23;30.80;55.80
12477;DHT22;6303;51.504;6.300;2023-06-22T12:57:50;30.80;55.80
12477;DHT22;6303;51.504;6.300;2023-06-22T13:00:18;30.80;55.80
12477;DHT22;6303;51.504;6.300;2023-06-22T13:02:45;30.80;55.70
12477;DHT22;6303;51.504;6.300;2023-06-22T13:05:12;30.80;55.70
12477;DHT22;6303;51.504;6.300;2023-06-22T13:07:39;30.80;55.60
12477;DHT22;6303;51.504;6.300;2023-06-22T13:10:08;30.80;55.60
12477;DHT22;6303;51.504;6.300;2023-06-22T13:12:36;30.80;55.60
12477;DHT22;6303;51.504;6.300;2023-06-22T13:15:04;30.80;55.60
12477;DHT22;6303;51.504;6.300;2023-06-22T13:17:31;30.80;55.50
12477;DHT22;6303;51.504;6.300;2023-06-22T13:19:58;30.80;55.50
12477;DHT22;6303;51.504;6.300;2023-06-22T13:22:30;30.80;55.40
12477;DHT22;6303;51.504;6.300;2023-06-22T13:24:57;30.80;55.40
12477;DHT22;6303;51.504;6.300;2023-06-22T13:27:24;30.80;55.40
12477;DHT22;6303;51.504;6.300;2023-06-22T13:29:53;31.40;55.70
12477;DHT22;6303;51.504;6.300;2023-06-22T13:32:20;30.80;55.30
12477;DHT22;6303;51.504;6.300;2023-06-22T13:34:48;30.80;55.30
12477;DHT22;6303;51.504;6.300;2023-06-22T13:37:15;30.80;55.30
12477;DHT22;6303;51.504;6.300;2023-06-22T13:39:42;30.80;55.30
12477;DHT22;6303;51.504;6.300;2023-06-22T13:42:09;30.80;55.30
12477;DHT22;6303;51.504;6.300;2023-06-22T13:44:36;30.80;55.30
12477;DHT22;6303;51.504;6.300;2023-06-22T13:47:06;30.80;55.30
12477;DHT22;6303;51.504;6.300;2023-06-22T13:49:33;30.80;55.30
12477;DHT22;6303;51.504;6.300;2023-06-22T13:52:00;30.80;55.20
12477;DHT22;6303;51.504;6.300;2023-06-22T13:54:29;30.80;55.20
12477;DHT22;6303;51.504;6.300;2023-06-22T13:56:56;30.80;55.20
12477;DHT22;6303;51.504;6.300;2023-06-22T13:59:23;30.80;55.30
12477;DHT22;6303;51.504;6.300;2023-06-22T14:01:52;30.80;55.20
12477;DHT22;6303;51.504;6.300;2023-06-22T14:04:21;30.80;55.10
12477;DHT22;6303;51.504;6.300;2023-06-22T14:06:48;30.80;55.20
12477;DHT22;6303;51.504;6.300;2023-06-22T14:09:15;30.80;55.10
12477;DHT22;6303;51.504;6.300;2023-06-22T14:11:42;30.80;55.10
12477;DHT22;6303;51.504;6.300;2023-06-22T14:14:09;30.80;55.10
12477;DHT22;6303;51.504;6.300;2023-06-22T14:16:37;30.80;55.10
12477;DHT22;6303;51.504;6.300;2023-06-22T14:19:04;30.80;55.70
12477;DHT22;6303;51.504;6.300;2023-06-22T14:21:32;30.80;55.10
12477;DHT22;6303;51.504;6.300;2023-06-22T14:23:59;30.80;55.10
12477;DHT22;6303;51.504;6.300;2023-06-22T14:26:27;30.80;55.00
12477;DHT22;6303;51.504;6.300;2023-06-22T14:28:54;30.80;55.10
12477;DHT22;6303;51.504;6.300;2023-06-22T14:31:22;30.80;55.10
12477;DHT22;6303;51.504;6.300;2023-06-22T14:33:50;30.80;55.10
12477;DHT22;6303;51.504;6.300;2023-06-22T14:36:17;30.80;55.10
12477;DHT22;6303;51.504;6.300;2023-06-22T14:38:46;30.80;55.30
12477;DHT22;6303;51.504;6.300;2023-06-22T14:41:13;30.80;55.30
12477;DHT22;6303;51.504;6.300;2023-06-22T14:43:46;30.80;55.20
12477;DHT22;6303;51.504;6.300;2023-06-22T14:46:14;30.80;55.10
12477;DHT22;6303;51.504;6.300;2023-06-22T14:48:41;30.80;55.10
12477;DHT22;6303;51.504;6.300;2023-06-22T14:51:09;30.80;55.10
12477;DHT22;6303;51.504;6.300;2023-06-22T14:53:36;30.80;55.10
12477;DHT22;6303;51.504;6.300;2023-06-22T14:56:05;30.80;55.10
12477;DHT22;6303;51.504;6.300;2023-06-22T14:58:32;30.80;55.00
12477;DHT22;6303;51.504;6.300;2023-06-22T15:01:00;30.80;55.10
12477;DHT22;6303;51.504;6.300;2023-06-22T15:03:27;30.80;55.10
12477;DHT22;6303;51.504;6.300;2023-06-22T15:05:56;30.80;55.10
12477;DHT22;6303;51.504;6.300;2023-06-22T15:08:23;30.80;55.20
12477;DHT22;6303;51.504;6.300;2023-06-22T15:10:51;30.30;54.90
12477;DHT22;6303;51.504;6.300;2023-06-22T15:13:19;30.80;55.30
12477;DHT22;6303;51.504;6.300;2023-06-22T15:15:48;30.90;55.30
12477;DHT22;6303;51.504;6.300;2023-06-22T15:18:16;30.80;55.30
12477;DHT22;6303;51.504;6.300;2023-06-22T15:20:43;30.80;55.20
12477;DHT22;6303;51.504;6.300;2023-06-22T15:23:11;30.80;55.30
12477;DHT22;6303;51.504;6.300;2023-06-22T15:25:39;30.80;55.30
12477;DHT22;6303;51.504;6.300;2023-06-22T15:28:06;30.80;55.30
12477;DHT22;6303;51.504;6.300;2023-06-22T15:30:34;30.90;56.50
12477;DHT22;6303;51.504;6.300;2023-06-22T15:33:01;30.80;56.80
12477;DHT22;6303;51.504;6.300;2023-06-22T15:35:28;30.80;57.00
12477;DHT22;6303;51.504;6.300;2023-06-22T15:37:55;30.80;57.20
12477;DHT22;6303;51.504;6.300;2023-06-22T15:40:22;30.80;57.90
12477;DHT22;6303;51.504;6.300;2023-06-22T15:42:50;30.70;57.60
12477;DHT22;6303;51.504;6.300;2023-06-22T15:45:17;30.70;57.40
12477;DHT22;6303;51.504;6.300;2023-06-22T15:47:45;30.70;57.20